sensor_id;sensor_type;location;lat;lon;timestamp;pressure;altitude;pressure_sealevel;temperature;humidity
8286;BME280;4181;43.416;24.598;2024-03-02T00:02:24;99372.16;;;10.80;100.00
8286;BME280;4181;43.416;24.598;2024-03-02T00:04:56;99375.13;;;10.83;100.00
8286;BME280;4181;43.416;24.598;2024-03-02T00:07:34;99370.78;;;10.87;100.00
8286;BME280;4181;43.416;24.598;2024-03-02T00:10:09;99353.88;;;10.90;100.00
8286;BME280;4181;43.416;24.598;2024-03-02T00:12:47;99353.31;;;10.93;100.00
8286;BME280;4181;43.416;24.598;2024-03-02T00:18:12;99344.84;;;11.00;100.00
8286;BME280;4181;43.416;24.598;2024-03-02T00:20:38;99337.78;;;10.94;100.00
8286;BME280;4181;43.416;24.598;2024-03-02T00:23:06;99326.56;;;10.95;100.00
8286;BME280;4181;43.416;24.598;2024-03-02T00:25:49;99330.97;;;11.01;100.00
8286;BME280;4181;43.416;24.598;2024-03-02T00:28:27;99346.78;;;10.79;100.00
8286;BME280;4181;43.416;24.598;2024-03-02T00:31:09;99311.28;;;10.64;100.00
8286;BME280;4181;43.416;24.598;2024-03-02T00:33:47;99273.94;;;10.60;100.00
8286;BME280;4181;43.416;24.598;2024-03-02T00:36:33;99265.19;;;10.68;100.00
8286;BME280;4181;43.416;24.598;2024-03-02T00:39:07;99275.28;;;10.62;100.00
8286;BME280;4181;43.416;24.598;2024-03-02T00:41:36;99288.91;;;10.52;100.00
8286;BME280;4181;43.416;24.598;2024-03-02T00:44:07;99279.09;;;10.56;100.00
8286;BME280;4181;43.416;24.598;2024-03-02T00:46:42;99285.09;;;10.63;100.00
8286;BME280;4181;43.416;24.598;2024-03-02T00:51:48;99237.66;;;10.64;100.00
8286;BME280;4181;43.416;24.598;2024-03-02T00:54:25;99207.38;;;10.61;100.00
8286;BME280;4181;43.416;24.598;2024-03-02T00:56:56;99221.84;;;10.61;100.00
8286;BME280;4181;43.416;24.598;2024-03-02T00:59:23;99295.97;;;10.28;100.00
8286;BME280;4181;43.416;24.598;2024-03-02T01:01:51;99309.41;;;9.73;100.00
8286;BME280;4181;43.416;24.598;2024-03-02T01:07:04;99216.28;;;9.91;100.00
8286;BME280;4181;43.416;24.598;2024-03-02T01:09:35;99184.16;;;10.03;100.00
8286;BME280;4181;43.416;24.598;2024-03-02T01:12:04;99204.66;;;10.31;100.00
8286;BME280;4181;43.416;24.598;2024-03-02T01:14:36;99213.38;;;10.48;100.00
8286;BME280;4181;43.416;24.598;2024-03-02T01:17:07;99225.34;;;10.52;100.00
8286;BME280;4181;43.416;24.598;2024-03-02T01:19:36;99231.09;;;10.55;100.00
8286;BME280;4181;43.416;24.598;2024-03-02T01:22:24;99249.38;;;10.65;100.00
8286;BME280;4181;43.416;24.598;2024-03-02T01:24:57;99256.19;;;10.67;100.00
8286;BME280;4181;43.416;24.598;2024-03-02T01:27:24;99249.91;;;10.72;100.00
8286;BME280;4181;43.416;24.598;2024-03-02T01:29:56;99267.09;;;10.72;100.00
8286;BME280;4181;43.416;24.598;2024-03-02T01:32:23;99259.47;;;10.79;100.00
8286;BME280;4181;43.416;24.598;2024-03-02T01:34:49;99255.09;;;10.73;100.00
8286;BME280;4181;43.416;24.598;2024-03-02T01:37:18;99252.91;;;10.70;100.00
8286;BME280;4181;43.416;24.598;2024-03-02T01:39:58;99242.53;;;10.77;100.00
8286;BME280;4181;43.416;24.598;2024-03-02T01:42:24;99237.66;;;10.74;100.00
8286;BME280;4181;43.416;24.598;2024-03-02T01:47:38;99249.09;;;10.71;100.00
8286;BME280;4181;43.416;24.598;2024-03-02T01:50:08;99272.28;;;10.84;100.00
8286;BME280;4181;43.416;24.598;2024-03-02T01:52:40;99269.28;;;10.85;100.00
8286;BME280;4181;43.416;24.598;2024-03-02T01:55:13;99261.38;;;10.79;100.00
8286;BME280;4181;43.416;24.598;2024-03-02T01:57:41;99269.28;;;10.90;100.00
8286;BME280;4181;43.416;24.598;2024-03-02T02:00:08;99280.75;;;10.82;100.00
8286;BME280;4181;43.416;24.598;2024-03-02T02:02:42;99281.28;;;10.84;100.00
8286;BME280;4181;43.416;24.598;2024-03-02T02:05:12;99286.75;;;10.74;100.00
8286;BME280;4181;43.416;24.598;2024-03-02T02:07:45;99281.84;;;10.81;100.00
8286;BME280;4181;43.416;24.598;2024-03-02T02:10:11;99273.09;;;10.79;100.00
8286;BME280;4181;43.416;24.598;2024-03-02T02:12:44;99285.38;;;10.77;100.00
8286;BME280;4181;43.416;24.598;2024-03-02T02:15:27;99291.38;;;10.79;100.00
8286;BME280;4181;43.416;24.598;2024-03-02T02:18:07;99287.03;;;10.78;100.00
8286;BME280;4181;43.416;24.598;2024-03-02T02:20:49;99285.66;;;10.75;100.00
8286;BME280;4181;43.416;24.598;2024-03-02T02:23:20;99283.47;;;10.72;100.00
8286;BME280;4181;43.416;24.598;2024-03-02T02:25:47;99287.81;;;10.78;100.00
8286;BME280;4181;43.416;24.598;2024-03-02T02:28:25;99294.94;;;10.74;100.00
8286;BME280;4181;43.416;24.598;2024-03-02T02:31:03;99295.75;;;10.80;100.00
8286;BME280;4181;43.416;24.598;2024-03-02T02:33:38;99304.19;;;10.63;100.00
8286;BME280;4181;43.416;24.598;2024-03-02T02:36:07;99301.22;;;10.65;100.00
8286;BME280;4181;43.416;24.598;2024-03-02T02:38:38;99298.22;;;10.61;100.00
8286;BME280;4181;43.416;24.598;2024-03-02T02:41:08;99298.22;;;10.66;100.00
8286;BME280;4181;43.416;24.598;2024-03-02T02:43:36;99300.66;;;10.73;100.00
8286;BME280;4181;43.416;24.598;2024-03-02T02:46:04;99314.03;;;10.74;100.00
8286;BME280;4181;43.416;24.598;2024-03-02T02:51:24;99330.38;;;10.54;100.00
8286;BME280;4181;43.416;24.598;2024-03-02T02:53:56;99315.63;;;10.50;100.00
8286;BME280;4181;43.416;24.598;2024-03-02T02:56:28;99326.00;;;10.58;100.00
8286;BME280;4181;43.416;24.598;2024-03-02T02:58:56;99327.94;;;10.58;100.00
8286;BME280;4181;43.416;24.598;2024-03-02T03:01:31;99331.19;;;10.50;100.00
8286;BME280;4181;43.416;24.598;2024-03-02T03:04:02;99339.41;;;10.60;100.00
8286;BME280;4181;43.416;24.598;2024-03-02T03:06:36;99345.63;;;10.45;100.00
8286;BME280;4181;43.416;24.598;2024-03-02T03:09:17;99347.53;;;10.35;100.00
8286;BME280;4181;43.416;24.598;2024-03-02T03:11:43;99346.16;;;10.42;100.00
8286;BME280;4181;43.416;24.598;2024-03-02T03:14:18;99353.25;;;10.48;100.00
8286;BME280;4181;43.416;24.598;2024-03-02T03:16:50;99368.56;;;10.54;100.00
8286;BME280;4181;43.416;24.598;2024-03-02T03:22:06;99374.53;;;10.46;100.00
8286;BME280;4181;43.416;24.598;2024-03-02T03:24:33;99375.59;;;10.40;100.00
8286;BME280;4181;43.416;24.598;2024-03-02T03:27:03;99364.16;;;10.43;100.00
8286;BME280;4181;43.416;24.598;2024-03-02T03:29:32;99373.72;;;10.51;100.00
8286;BME280;4181;43.416;24.598;2024-03-02T03:32:05;99357.09;;;10.57;100.00
8286;BME280;4181;43.416;24.598;2024-03-02T03:34:44;99367.47;;;10.55;100.00
8286;BME280;4181;43.416;24.598;2024-03-02T03:37:26;99335.50;;;10.26;100.00
8286;BME280;4181;43.416;24.598;2024-03-02T03:40:06;99367.19;;;10.52;100.00
8286;BME280;4181;43.416;24.598;2024-03-02T03:42:46;99361.22;;;10.55;100.00
8286;BME280;4181;43.416;24.598;2024-03-02T03:45:28;99368.56;;;10.54;100.00
8286;BME280;4181;43.416;24.598;2024-03-02T03:48:07;99379.50;;;10.64;100.00
8286;BME280;4181;43.416;24.598;2024-03-02T03:50:35;99378.38;;;10.55;100.00
8286;BME280;4181;43.416;24.598;2024-03-02T03:53:07;99398.78;;;10.38;100.00
8286;BME280;4181;43.416;24.598;2024-03-02T03:55:43;99409.13;;;10.31;100.00
8286;BME280;4181;43.416;24.598;2024-03-02T03:58:11;99415.13;;;10.33;100.00
8286;BME280;4181;43.416;24.598;2024-03-02T04:00:42;99398.97;;;10.16;100.00
8286;BME280;4181;43.416;24.598;2024-03-02T04:03:15;99402.28;;;10.23;100.00
8286;BME280;4181;43.416;24.598;2024-03-02T04:05:42;99402.25;;;10.18;100.00
8286;BME280;4181;43.416;24.598;2024-03-02T04:08:11;99374.44;;;10.11;100.00
8286;BME280;4181;43.416;24.598;2024-03-02T04:10:40;99379.94;;;10.26;100.00
8286;BME280;4181;43.416;24.598;2024-03-02T04:13:09;99381.53;;;10.22;100.00
8286;BME280;4181;43.416;24.598;2024-03-02T04:15:38;99371.19;;;10.24;100.00
8286;BME280;4181;43.416;24.598;2024-03-02T04:18:08;99374.22;;;10.28;100.00
8286;BME280;4181;43.416;24.598;2024-03-02T04:20:35;99383.72;;;10.20;100.00
8286;BME280;4181;43.416;24.598;2024-03-02T04:23:02;99384.84;;;10.24;100.00
8286;BME280;4181;43.416;24.598;2024-03-02T04:25:30;99393.03;;;10.29;100.00
8286;BME280;4181;43.416;24.598;2024-03-02T04:28:05;99382.94;;;10.30;100.00
8286;BME280;4181;43.416;24.598;2024-03-02T04:30:45;99376.13;;;10.32;100.00
8286;BME280;4181;43.416;24.598;2024-03-02T04:33:19;99400.69;;;10.42;100.00
8286;BME280;4181;43.416;24.598;2024-03-02T04:35:50;99396.63;;;10.40;100.00
8286;BME280;4181;43.416;24.598;2024-03-02T04:38:28;99396.88;;;10.48;100.00
8286;BME280;4181;43.416;24.598;2024-03-02T04:41:06;99410.50;;;10.43;100.00
8286;BME280;4181;43.416;24.598;2024-03-02T04:43:33;99414.28;;;10.32;100.00
8286;BME280;4181;43.416;24.598;2024-03-02T04:46:01;99420.00;;;10.26;100.00
8286;BME280;4181;43.416;24.598;2024-03-02T04:48:30;99432.13;;;10.03;100.00
8286;BME280;4181;43.416;24.598;2024-03-02T04:50:59;99413.13;;;10.08;100.00
8286;BME280;4181;43.416;24.598;2024-03-02T04:53:26;99403.56;;;10.10;100.00
8286;BME280;4181;43.416;24.598;2024-03-02T04:56:08;99403.06;;;10.18;100.00
8286;BME280;4181;43.416;24.598;2024-03-02T04:58:38;99406.34;;;10.20;100.00
8286;BME280;4181;43.416;24.598;2024-03-02T05:01:08;99410.44;;;10.18;100.00
8286;BME280;4181;43.416;24.598;2024-03-02T05:03:41;99405.38;;;9.95;100.00
8286;BME280;4181;43.416;24.598;2024-03-02T05:06:08;99401.59;;;10.01;100.00
8286;BME280;4181;43.416;24.598;2024-03-02T05:08:44;99407.41;;;10.09;100.00
8286;BME280;4181;43.416;24.598;2024-03-02T05:11:16;99404.41;;;10.11;100.00
8286;BME280;4181;43.416;24.598;2024-03-02T05:14:16;99413.38;;;10.11;100.00
8286;BME280;4181;43.416;24.598;2024-03-02T05:16:47;99415.06;;;10.17;100.00
8286;BME280;4181;43.416;24.598;2024-03-02T05:22:06;99420.19;;;10.09;100.00
8286;BME280;4181;43.416;24.598;2024-03-02T05:27:27;99433.03;;;10.13;100.00
8286;BME280;4181;43.416;24.598;2024-03-02T05:29:55;99428.03;;;10.00;100.00
8286;BME280;4181;43.416;24.598;2024-03-02T05:32:21;99423.94;;;9.98;100.00
8286;BME280;4181;43.416;24.598;2024-03-02T05:34:51;99423.34;;;9.91;100.00
8286;BME280;4181;43.416;24.598;2024-03-02T05:37:23;99410.78;;;9.90;100.00
8286;BME280;4181;43.416;24.598;2024-03-02T05:39:55;99404.28;;;9.91;100.00
8286;BME280;4181;43.416;24.598;2024-03-02T05:42:34;99416.06;;;10.06;100.00
8286;BME280;4181;43.416;24.598;2024-03-02T05:45:04;99447.38;;;9.99;100.00
8286;BME280;4181;43.416;24.598;2024-03-02T05:47:33;99409.97;;;9.84;100.00
8286;BME280;4181;43.416;24.598;2024-03-02T05:49:59;99436.78;;;9.61;100.00
8286;BME280;4181;43.416;24.598;2024-03-02T05:52:30;99412.22;;;9.56;100.00
8286;BME280;4181;43.416;24.598;2024-03-02T05:55:08;99404.44;;;9.69;100.00
8286;BME280;4181;43.416;24.598;2024-03-02T05:57:38;99412.44;;;9.91;100.00
8286;BME280;4181;43.416;24.598;2024-03-02T06:00:10;99415.78;;;10.03;100.00
8286;BME280;4181;43.416;24.598;2024-03-02T06:02:42;99437.81;;;9.96;100.00
8286;BME280;4181;43.416;24.598;2024-03-02T06:05:14;99425.94;;;9.71;100.00
8286;BME280;4181;43.416;24.598;2024-03-02T06:07:45;99433.34;;;9.80;100.00
8286;BME280;4181;43.416;24.598;2024-03-02T06:10:11;99412.91;;;9.73;100.00
8286;BME280;4181;43.416;24.598;2024-03-02T06:12:37;99428.38;;;9.67;100.00
8286;BME280;4181;43.416;24.598;2024-03-02T06:15:08;99440.41;;;9.76;100.00
8286;BME280;4181;43.416;24.598;2024-03-02T06:17:42;99418.91;;;9.80;100.00
8286;BME280;4181;43.416;24.598;2024-03-02T06:20:10;99418.69;;;9.91;100.00
8286;BME280;4181;43.416;24.598;2024-03-02T06:22:44;99402.41;;;10.01;100.00
8286;BME280;4181;43.416;24.598;2024-03-02T06:25:09;99413.69;;;10.20;100.00
8286;BME280;4181;43.416;24.598;2024-03-02T06:27:41;99409.13;;;10.31;100.00
8286;BME280;4181;43.416;24.598;2024-03-02T06:30:07;99400.66;;;10.27;100.00
8286;BME280;4181;43.416;24.598;2024-03-02T06:32:45;99391.19;;;10.45;100.00
8286;BME280;4181;43.416;24.598;2024-03-02T06:35:20;99426.09;;;10.48;100.00
8286;BME280;4181;43.416;24.598;2024-03-02T06:37:53;99420.63;;;10.43;100.00
8286;BME280;4181;43.416;24.598;2024-03-02T06:40:25;99411.91;;;10.51;100.00
8286;BME280;4181;43.416;24.598;2024-03-02T06:42:57;99421.41;;;10.43;100.00
8286;BME280;4181;43.416;24.598;2024-03-02T06:45:29;99417.59;;;10.39;100.00
8286;BME280;4181;43.416;24.598;2024-03-02T06:47:59;99430.69;;;10.42;100.00
8286;BME280;4181;43.416;24.598;2024-03-02T06:50:25;99422.25;;;10.44;100.00
8286;BME280;4181;43.416;24.598;2024-03-02T06:52:55;99449.81;;;10.52;100.00
8286;BME280;4181;43.416;24.598;2024-03-02T06:55:30;99426.56;;;10.25;100.00
8286;BME280;4181;43.416;24.598;2024-03-02T06:58:00;99422.50;;;10.42;100.00
8286;BME280;4181;43.416;24.598;2024-03-02T07:00:30;99436.97;;;10.43;100.00
8286;BME280;4181;43.416;24.598;2024-03-02T07:02:58;99454.09;;;10.33;100.00
8286;BME280;4181;43.416;24.598;2024-03-02T07:05:27;99426.03;;;10.33;100.00
8286;BME280;4181;43.416;24.598;2024-03-02T07:07:53;99461.22;;;10.34;100.00
8286;BME280;4181;43.416;24.598;2024-03-02T07:10:19;99470.44;;;10.23;100.00
8286;BME280;4181;43.416;24.598;2024-03-02T07:12:54;99449.75;;;10.32;100.00
8286;BME280;4181;43.416;24.598;2024-03-02T07:15:25;99462.56;;;10.37;100.00
8286;BME280;4181;43.416;24.598;2024-03-02T07:21:00;99423.34;;;10.43;100.00
8286;BME280;4181;43.416;24.598;2024-03-02T07:23:29;99436.06;;;10.22;100.00
8286;BME280;4181;43.416;24.598;2024-03-02T07:26:01;99422.41;;;10.17;100.00
8286;BME280;4181;43.416;24.598;2024-03-02T07:28:27;99425.75;;;10.34;100.00
8286;BME280;4181;43.416;24.598;2024-03-02T07:31:06;99437.25;;;10.46;100.00
8286;BME280;4181;43.416;24.598;2024-03-02T07:33:33;99431.50;;;10.38;100.00
8286;BME280;4181;43.416;24.598;2024-03-02T07:36:03;99436.16;;;10.42;100.00
8286;BME280;4181;43.416;24.598;2024-03-02T07:38:32;99451.19;;;10.45;100.00
8286;BME280;4181;43.416;24.598;2024-03-02T07:41:08;99486.56;;;10.30;100.00
8286;BME280;4181;43.416;24.598;2024-03-02T07:43:44;99483.44;;;10.11;100.00
8286;BME280;4181;43.416;24.598;2024-03-02T07:46:28;99461.03;;;10.04;100.00
8286;BME280;4181;43.416;24.598;2024-03-02T07:48:54;99477.06;;;10.00;100.00
8286;BME280;4181;43.416;24.598;2024-03-02T07:51:20;99468.88;;;9.95;100.00
8286;BME280;4181;43.416;24.598;2024-03-02T07:53:49;99449.59;;;10.07;100.00
8286;BME280;4181;43.416;24.598;2024-03-02T07:56:22;99450.22;;;10.14;100.00
8286;BME280;4181;43.416;24.598;2024-03-02T07:58:50;99447.50;;;10.19;100.00
8286;BME280;4181;43.416;24.598;2024-03-02T08:01:22;99458.16;;;10.26;100.00
8286;BME280;4181;43.416;24.598;2024-03-02T08:03:59;99451.44;;;10.48;100.00
8286;BME280;4181;43.416;24.598;2024-03-02T08:06:27;99478.41;;;10.35;100.00
8286;BME280;4181;43.416;24.598;2024-03-02T08:09:03;99483.09;;;10.49;100.00
8286;BME280;4181;43.416;24.598;2024-03-02T08:11:34;99491.59;;;10.58;100.00
8286;BME280;4181;43.416;24.598;2024-03-02T08:14:01;99483.41;;;10.58;100.00
8286;BME280;4181;43.416;24.598;2024-03-02T08:16:28;99481.50;;;10.63;100.00
8286;BME280;4181;43.416;24.598;2024-03-02T08:19:01;99493.22;;;10.59;100.00
8286;BME280;4181;43.416;24.598;2024-03-02T08:21:32;99497.09;;;10.73;100.00
8286;BME280;4181;43.416;24.598;2024-03-02T08:24:03;99510.19;;;10.76;100.00
8286;BME280;4181;43.416;24.598;2024-03-02T08:26:32;99482.63;;;10.77;100.00
8286;BME280;4181;43.416;24.598;2024-03-02T08:29:07;99484.75;;;10.55;100.00
8286;BME280;4181;43.416;24.598;2024-03-02T08:31:37;99484.25;;;10.73;100.00
8286;BME280;4181;43.416;24.598;2024-03-02T08:34:07;99500.16;;;10.86;100.00
8286;BME280;4181;43.416;24.598;2024-03-02T08:36:32;99503.94;;;10.85;100.00
8286;BME280;4181;43.416;24.598;2024-03-02T08:39:02;99498.22;;;10.92;100.00
8286;BME280;4181;43.416;24.598;2024-03-02T08:41:32;99491.72;;;11.03;100.00
8286;BME280;4181;43.416;24.598;2024-03-02T08:44:01;99512.19;;;11.05;100.00
8286;BME280;4181;43.416;24.598;2024-03-02T08:46:29;99502.94;;;11.11;100.00
8286;BME280;4181;43.416;24.598;2024-03-02T08:49:02;99499.13;;;11.22;100.00
8286;BME280;4181;43.416;24.598;2024-03-02T08:51:32;99490.41;;;11.35;100.00
8286;BME280;4181;43.416;24.598;2024-03-02T08:54:08;99477.84;;;11.44;100.00
8286;BME280;4181;43.416;24.598;2024-03-02T08:56:41;99485.22;;;11.49;100.00
8286;BME280;4181;43.416;24.598;2024-03-02T08:59:09;99506.53;;;11.62;100.00
8286;BME280;4181;43.416;24.598;2024-03-02T09:01:35;99505.16;;;11.49;100.00
8286;BME280;4181;43.416;24.598;2024-03-02T09:04:07;99540.69;;;11.49;100.00
8286;BME280;4181;43.416;24.598;2024-03-02T09:06:41;99554.06;;;11.51;100.00
8286;BME280;4181;43.416;24.598;2024-03-02T09:09:09;99559.22;;;11.37;100.00
8286;BME280;4181;43.416;24.598;2024-03-02T09:11:35;99552.66;;;11.33;100.00
8286;BME280;4181;43.416;24.598;2024-03-02T09:14:02;99573.72;;;11.43;100.00
8286;BME280;4181;43.416;24.598;2024-03-02T09:16:29;99591.16;;;11.32;100.00
8286;BME280;4181;43.416;24.598;2024-03-02T09:18:59;99573.72;;;11.43;100.00
8286;BME280;4181;43.416;24.598;2024-03-02T09:21:25;99539.28;;;11.42;100.00
8286;BME280;4181;43.416;24.598;2024-03-02T09:23:56;99517.16;;;11.33;100.00
8286;BME280;4181;43.416;24.598;2024-03-02T09:26:27;99541.22;;;11.31;100.00
8286;BME280;4181;43.416;24.598;2024-03-02T09:28:54;99543.63;;;11.18;100.00
8286;BME280;4181;43.416;24.598;2024-03-02T09:31:20;99543.38;;;11.24;100.00
8286;BME280;4181;43.416;24.598;2024-03-02T09:33:46;99524.53;;;11.33;100.00
8286;BME280;4181;43.416;24.598;2024-03-02T09:36:21;99501.31;;;11.25;100.00
8286;BME280;4181;43.416;24.598;2024-03-02T09:41:33;99533.03;;;11.36;100.00
8286;BME280;4181;43.416;24.598;2024-03-02T09:43:59;99542.28;;;11.35;100.00
8286;BME280;4181;43.416;24.598;2024-03-02T09:46:27;99552.94;;;11.37;100.00
8286;BME280;4181;43.416;24.598;2024-03-02T09:48:57;99539.84;;;11.39;100.00
8286;BME280;4181;43.416;24.598;2024-03-02T09:51:23;99534.13;;;11.50;100.00
8286;BME280;4181;43.416;24.598;2024-03-02T09:53:49;99537.94;;;11.39;100.00
8286;BME280;4181;43.416;24.598;2024-03-02T09:56:20;99543.69;;;11.53;100.00
8286;BME280;4181;43.416;24.598;2024-03-02T09:58:59;99554.34;;;11.55;100.00
8286;BME280;4181;43.416;24.598;2024-03-02T10:01:25;99559.81;;;11.55;100.00
8286;BME280;4181;43.416;24.598;2024-03-02T10:03:51;99545.31;;;11.54;100.00
8286;BME280;4181;43.416;24.598;2024-03-02T10:06:27;99533.28;;;11.55;100.00
8286;BME280;4181;43.416;24.598;2024-03-02T10:08:58;99546.72;;;11.67;100.00
8286;BME280;4181;43.416;24.598;2024-03-02T10:11:34;99544.25;;;11.65;100.00
8286;BME280;4181;43.416;24.598;2024-03-02T10:14:12;99543.97;;;11.82;100.00
8286;BME280;4181;43.416;24.598;2024-03-02T10:16:51;99538.78;;;11.85;100.00
8286;BME280;4181;43.416;24.598;2024-03-02T10:21:54;99548.94;;;11.85;100.00
8286;BME280;4181;43.416;24.598;2024-03-02T10:24:23;99565.59;;;11.78;100.00
8286;BME280;4181;43.416;24.598;2024-03-02T10:26:56;99561.50;;;11.76;100.00
8286;BME280;4181;43.416;24.598;2024-03-02T10:29:32;99580.00;;;11.53;100.00
8286;BME280;4181;43.416;24.598;2024-03-02T10:31:57;99575.09;;;11.61;100.00
8286;BME280;4181;43.416;24.598;2024-03-02T10:34:25;99573.44;;;11.44;100.00
8286;BME280;4181;43.416;24.598;2024-03-02T10:36:54;99570.69;;;11.34;100.00
8286;BME280;4181;43.416;24.598;2024-03-02T10:39:24;99569.91;;;11.44;100.00
8286;BME280;4181;43.416;24.598;2024-03-02T10:41:52;99575.63;;;11.42;100.00
8286;BME280;4181;43.416;24.598;2024-03-02T10:44:26;99571.28;;;11.52;100.00
8286;BME280;4181;43.416;24.598;2024-03-02T10:46:53;99569.63;;;11.50;100.00
8286;BME280;4181;43.416;24.598;2024-03-02T10:49:33;99571.81;;;11.59;100.00
8286;BME280;4181;43.416;24.598;2024-03-02T10:52:04;99572.91;;;11.52;100.00
8286;BME280;4181;43.416;24.598;2024-03-02T10:54:30;99558.97;;;11.54;100.00
8286;BME280;4181;43.416;24.598;2024-03-02T10:57:01;99562.00;;;11.63;100.00
8286;BME280;4181;43.416;24.598;2024-03-02T10:59:36;99563.09;;;11.67;100.00
8286;BME280;4181;43.416;24.598;2024-03-02T11:02:06;99552.72;;;11.69;100.00
8286;BME280;4181;43.416;24.598;2024-03-02T11:04:47;99530.59;;;11.65;100.00
8286;BME280;4181;43.416;24.598;2024-03-02T11:07:18;99532.25;;;11.71;100.00
8286;BME280;4181;43.416;24.598;2024-03-02T11:10:04;99540.44;;;11.86;100.00
8286;BME280;4181;43.416;24.598;2024-03-02T11:13:05;99535.25;;;11.90;100.00
8286;BME280;4181;43.416;24.598;2024-03-02T11:15:46;99525.41;;;11.99;100.00
8286;BME280;4181;43.416;24.598;2024-03-02T11:18:13;99537.97;;;12.05;100.00
8286;BME280;4181;43.416;24.598;2024-03-02T11:20:40;99554.66;;;12.03;100.00
8286;BME280;4181;43.416;24.598;2024-03-02T11:23:09;99583.34;;;12.01;100.00
8286;BME280;4181;43.416;24.598;2024-03-02T11:25:38;99581.19;;;11.98;100.00
8286;BME280;4181;43.416;24.598;2024-03-02T11:28:06;99593.19;;;11.97;100.00
8286;BME280;4181;43.416;24.598;2024-03-02T11:33:00;99598.94;;;12.00;100.00
8286;BME280;4181;43.416;24.598;2024-03-02T11:35:28;99596.47;;;12.09;100.00
8286;BME280;4181;43.416;24.598;2024-03-02T11:37:55;99618.34;;;12.09;100.00
8286;BME280;4181;43.416;24.598;2024-03-02T11:40:30;99621.09;;;11.99;100.00
8286;BME280;4181;43.416;24.598;2024-03-02T11:42:57;99598.66;;;11.97;100.00
8286;BME280;4181;43.416;24.598;2024-03-02T11:45:26;99598.13;;;12.05;100.00
8286;BME280;4181;43.416;24.598;2024-03-02T11:47:57;99599.19;;;11.84;100.00
8286;BME280;4181;43.416;24.598;2024-03-02T11:50:34;99594.00;;;11.92;100.00
8286;BME280;4181;43.416;24.598;2024-03-02T11:53:08;99585.00;;;11.97;100.00
8286;BME280;4181;43.416;24.598;2024-03-02T11:55:44;99580.34;;;12.02;100.00
8286;BME280;4181;43.416;24.598;2024-03-02T11:58:20;99578.16;;;12.09;100.00
8286;BME280;4181;43.416;24.598;2024-03-02T12:00:46;99570.25;;;12.03;100.00
8286;BME280;4181;43.416;24.598;2024-03-02T12:03:13;99574.59;;;12.09;100.00
8286;BME280;4181;43.416;24.598;2024-03-02T12:05:42;99556.28;;;12.14;100.00
8286;BME280;4181;43.416;24.598;2024-03-02T12:08:08;99570.22;;;12.23;100.00
8286;BME280;4181;43.416;24.598;2024-03-02T12:10:36;99588.53;;;12.32;100.00
8286;BME280;4181;43.416;24.598;2024-03-02T12:13:05;99601.66;;;12.25;100.00
8286;BME280;4181;43.416;24.598;2024-03-02T12:15:37;99609.88;;;12.15;100.00
8286;BME280;4181;43.416;24.598;2024-03-02T12:18:04;99621.34;;;12.17;100.00
8286;BME280;4181;43.416;24.598;2024-03-02T12:20:33;99625.19;;;12.16;100.00
8286;BME280;4181;43.416;24.598;2024-03-02T12:23:05;99613.44;;;12.16;100.00
8286;BME280;4181;43.416;24.598;2024-03-02T12:25:34;99620.81;;;12.05;100.00
8286;BME280;4181;43.416;24.598;2024-03-02T12:28:01;99636.13;;;12.21;100.00
8286;BME280;4181;43.416;24.598;2024-03-02T12:30:30;99634.19;;;12.32;100.00
8286;BME280;4181;43.416;24.598;2024-03-02T12:32:56;99652.81;;;12.20;100.00
8286;BME280;4181;43.416;24.598;2024-03-02T12:35:24;99658.81;;;12.12;100.00
8286;BME280;4181;43.416;24.598;2024-03-02T12:37:52;99647.63;;;12.08;100.00
8286;BME280;4181;43.416;24.598;2024-03-02T12:40:27;99643.22;;;12.12;100.00
8286;BME280;4181;43.416;24.598;2024-03-02T12:43:04;99650.56;;;11.82;100.00
8286;BME280;4181;43.416;24.598;2024-03-02T12:45:30;99637.47;;;11.79;100.00
8286;BME280;4181;43.416;24.598;2024-03-02T12:48:02;99626.81;;;11.92;100.00
8286;BME280;4181;43.416;24.598;2024-03-02T12:50:33;99632.00;;;11.94;100.00
8286;BME280;4181;43.416;24.598;2024-03-02T12:53:05;99638.03;;;11.96;100.00
8286;BME280;4181;43.416;24.598;2024-03-02T12:55:34;99631.22;;;11.88;100.00
8286;BME280;4181;43.416;24.598;2024-03-02T12:58:01;99634.19;;;11.87;100.00
8286;BME280;4181;43.416;24.598;2024-03-02T13:00:32;99629.84;;;11.96;100.00
8286;BME280;4181;43.416;24.598;2024-03-02T13:03:00;99624.63;;;11.94;100.00
8286;BME280;4181;43.416;24.598;2024-03-02T13:05:33;99623.53;;;12.10;100.00
8286;BME280;4181;43.416;24.598;2024-03-02T13:08:00;99638.59;;;12.03;100.00
8286;BME280;4181;43.416;24.598;2024-03-02T13:10:40;99638.31;;;12.09;100.00
8286;BME280;4181;43.416;24.598;2024-03-02T13:13:06;99630.13;;;12.04;100.00
8286;BME280;4181;43.416;24.598;2024-03-02T13:15:37;99633.69;;;12.15;100.00
8286;BME280;4181;43.416;24.598;2024-03-02T13:18:07;99646.25;;;12.21;100.00
8286;BME280;4181;43.416;24.598;2024-03-02T13:20:37;99647.88;;;12.27;100.00
8286;BME280;4181;43.416;24.598;2024-03-02T13:23:05;99665.13;;;12.27;100.00
8286;BME280;4181;43.416;24.598;2024-03-02T13:25:31;99666.50;;;12.30;100.00
8286;BME280;4181;43.416;24.598;2024-03-02T13:27:57;99657.47;;;12.34;100.00
8286;BME280;4181;43.416;24.598;2024-03-02T13:30:23;99664.56;;;12.35;100.00
8286;BME280;4181;43.416;24.598;2024-03-02T13:32:49;99656.34;;;12.40;100.00
8286;BME280;4181;43.416;24.598;2024-03-02T13:35:14;99659.63;;;12.37;100.00
8286;BME280;4181;43.416;24.598;2024-03-02T13:37:40;99656.63;;;12.29;100.00
8286;BME280;4181;43.416;24.598;2024-03-02T13:40:06;99658.81;;;12.47;100.00
8286;BME280;4181;43.416;24.598;2024-03-02T13:42:32;99663.75;;;12.45;100.00
8286;BME280;4181;43.416;24.598;2024-03-02T13:44:57;99680.41;;;12.43;100.00
8286;BME280;4181;43.416;24.598;2024-03-02T13:47:23;99684.81;;;12.44;100.00
8286;BME280;4181;43.416;24.598;2024-03-02T13:49:49;99680.69;;;12.42;100.00
8286;BME280;4181;43.416;24.598;2024-03-02T13:52:15;99679.06;;;12.26;100.00
8286;BME280;4181;43.416;24.598;2024-03-02T13:54:47;99688.09;;;12.16;100.00